sensor_id;sensor_type;location;lat;lon;timestamp;pressure;altitude;pressure_sealevel;temperature;humidity
69257;BME280;56376;53.356;-1.748;2023-03-31T00:01:29;97163.53;;;9.47;100.00
69257;BME280;56376;53.356;-1.748;2023-03-31T00:03:55;97154.91;;;9.47;100.00
69257;BME280;56376;53.356;-1.748;2023-03-31T00:06:27;97148.13;;;9.44;100.00
69257;BME280;56376;53.356;-1.748;2023-03-31T00:08:53;97129.16;;;9.42;100.00
69257;BME280;56376;53.356;-1.748;2023-03-31T00:11:20;97127.50;;;9.41;100.00
69257;BME280;56376;53.356;-1.748;2023-03-31T00:13:46;97117.91;;;9.42;100.00
69257;BME280;56376;53.356;-1.748;2023-03-31T00:16:12;97102.41;;;9.40;100.00
69257;BME280;56376;53.356;-1.748;2023-03-31T00:18:37;97096.69;;;9.35;100.00
69257;BME280;56376;53.356;-1.748;2023-03-31T00:21:11;97093.94;;;9.37;100.00
69257;BME280;56376;53.356;-1.748;2023-03-31T00:23:55;97093.34;;;9.33;100.00
69257;BME280;56376;53.356;-1.748;2023-03-31T00:26:21;97082.09;;;9.32;100.00
69257;BME280;56376;53.356;-1.748;2023-03-31T00:28:48;97079.59;;;9.31;100.00
69257;BME280;56376;53.356;-1.748;2023-03-31T00:31:14;97075.34;;;9.30;100.00
69257;BME280;56376;53.356;-1.748;2023-03-31T00:33:39;97066.66;;;9.29;100.00
69257;BME280;56376;53.356;-1.748;2023-03-31T00:36:05;97061.66;;;9.26;100.00
69257;BME280;56376;53.356;-1.748;2023-03-31T00:38:32;97058.97;;;9.28;100.00
69257;BME280;56376;53.356;-1.748;2023-03-31T00:40:58;97047.09;;;9.24;100.00
69257;BME280;56376;53.356;-1.748;2023-03-31T00:43:36;97052.53;;;9.21;100.00
69257;BME280;56376;53.356;-1.748;2023-03-31T00:46:12;97045.66;;;9.20;100.00
69257;BME280;56376;53.356;-1.748;2023-03-31T00:48:46;97021.59;;;9.16;100.00
69257;BME280;56376;53.356;-1.748;2023-03-31T00:51:14;97023.28;;;9.17;100.00
69257;BME280;56376;53.356;-1.748;2023-03-31T00:53:40;97011.06;;;9.18;100.00
69257;BME280;56376;53.356;-1.748;2023-03-31T00:56:11;97001.72;;;9.15;100.00
69257;BME280;56376;53.356;-1.748;2023-03-31T00:58:38;96998.16;;;9.16;100.00
69257;BME280;56376;53.356;-1.748;2023-03-31T01:01:10;97005.88;;;9.18;100.00
69257;BME280;56376;53.356;-1.748;2023-03-31T01:03:39;96995.44;;;9.18;100.00
69257;BME280;56376;53.356;-1.748;2023-03-31T01:06:06;96991.28;;;9.15;100.00
69257;BME280;56376;53.356;-1.748;2023-03-31T01:08:35;96984.41;;;9.14;100.00
69257;BME280;56376;53.356;-1.748;2023-03-31T01:11:03;96971.38;;;9.14;100.00
69257;BME280;56376;53.356;-1.748;2023-03-31T01:13:31;96966.16;;;9.14;100.00
69257;BME280;56376;53.356;-1.748;2023-03-31T01:15:58;96961.91;;;9.13;100.00
69257;BME280;56376;53.356;-1.748;2023-03-31T01:18:24;96947.34;;;9.10;100.00
69257;BME280;56376;53.356;-1.748;2023-03-31T01:43:23;96872.38;;;9.03;100.00
69257;BME280;56376;53.356;-1.748;2023-03-31T01:46:03;96856.84;;;9.01;100.00
69257;BME280;56376;53.356;-1.748;2023-03-31T01:51:34;96849.16;;;9.00;100.00
69257;BME280;56376;53.356;-1.748;2023-03-31T01:56:57;96839.19;;;8.94;100.00
69257;BME280;56376;53.356;-1.748;2023-03-31T01:59:28;96828.91;;;8.92;100.00
69257;BME280;56376;53.356;-1.748;2023-03-31T02:02:01;96823.91;;;8.89;100.00
69257;BME280;56376;53.356;-1.748;2023-03-31T02:04:35;96805.56;;;8.91;100.00
69257;BME280;56376;53.356;-1.748;2023-03-31T02:07:47;96793.72;;;8.86;100.00
69257;BME280;56376;53.356;-1.748;2023-03-31T02:09:57;96794.44;;;8.88;100.00
69257;BME280;56376;53.356;-1.748;2023-03-31T02:12:25;96783.19;;;8.88;100.00
69257;BME280;56376;53.356;-1.748;2023-03-31T02:14:54;96786.75;;;8.87;100.00
69257;BME280;56376;53.356;-1.748;2023-03-31T02:17:23;96774.56;;;8.87;100.00
69257;BME280;56376;53.356;-1.748;2023-03-31T02:19:56;96771.13;;;8.87;100.00
69257;BME280;56376;53.356;-1.748;2023-03-31T02:22:24;96763.09;;;8.90;100.00
69257;BME280;56376;53.356;-1.748;2023-03-31T02:24:52;96764.16;;;8.87;100.00
69257;BME280;56376;53.356;-1.748;2023-03-31T02:27:32;96741.78;;;8.85;100.00
69257;BME280;56376;53.356;-1.748;2023-03-31T02:29:59;96725.22;;;8.86;100.00
69257;BME280;56376;53.356;-1.748;2023-03-31T02:32:38;96725.22;;;8.86;100.00
69257;BME280;56376;53.356;-1.748;2023-03-31T02:35:05;96715.63;;;8.86;100.00
69257;BME280;56376;53.356;-1.748;2023-03-31T02:37:32;96718.94;;;8.88;100.00
69257;BME280;56376;53.356;-1.748;2023-03-31T02:40:02;96700.84;;;8.87;100.00
69257;BME280;56376;53.356;-1.748;2023-03-31T02:42:29;96698.47;;;8.84;100.00
69257;BME280;56376;53.356;-1.748;2023-03-31T02:45:01;96691.38;;;8.86;100.00
69257;BME280;56376;53.356;-1.748;2023-03-31T02:47:27;96679.41;;;8.83;100.00
69257;BME280;56376;53.356;-1.748;2023-03-31T02:49:55;96676.72;;;8.85;100.00
69257;BME280;56376;53.356;-1.748;2023-03-31T02:52:35;96674.22;;;8.83;100.00
69257;BME280;56376;53.356;-1.748;2023-03-31T03:06:57;96631.03;;;8.81;100.00
69257;BME280;56376;53.356;-1.748;2023-03-31T03:15:11;96610.69;;;8.75;100.00
69257;BME280;56376;53.356;-1.748;2023-03-31T03:17:43;96606.28;;;8.75;100.00
69257;BME280;56376;53.356;-1.748;2023-03-31T03:20:10;96597.66;;;8.75;100.00
69257;BME280;56376;53.356;-1.748;2023-03-31T03:22:37;96590.19;;;8.70;100.00
69257;BME280;56376;53.356;-1.748;2023-03-31T03:25:04;96580.84;;;8.68;100.00
69257;BME280;56376;53.356;-1.748;2023-03-31T03:27:30;96568.41;;;8.71;100.00
69257;BME280;56376;53.356;-1.748;2023-03-31T03:29:57;96574.59;;;8.70;100.00
69257;BME280;56376;53.356;-1.748;2023-03-31T03:32:23;96571.16;;;8.70;100.00
69257;BME280;56376;53.356;-1.748;2023-03-31T03:34:48;96566.78;;;8.70;100.00
69257;BME280;56376;53.356;-1.748;2023-03-31T03:37:14;96559.06;;;8.69;100.00
69257;BME280;56376;53.356;-1.748;2023-03-31T03:39:39;96552.94;;;8.70;100.00
69257;BME280;56376;53.356;-1.748;2023-03-31T03:42:04;96546.06;;;8.69;100.00
69257;BME280;56376;53.356;-1.748;2023-03-31T03:44:30;96539.94;;;8.70;100.00
69257;BME280;56376;53.356;-1.748;2023-03-31T03:46:55;96533.06;;;8.69;100.00
69257;BME280;56376;53.356;-1.748;2023-03-31T03:49:21;96529.63;;;8.68;100.00
69257;BME280;56376;53.356;-1.748;2023-03-31T03:51:46;96531.28;;;8.69;100.00
69257;BME280;56376;53.356;-1.748;2023-03-31T03:54:12;96520.75;;;8.71;100.00
69257;BME280;56376;53.356;-1.748;2023-03-31T03:56:37;96522.06;;;8.76;100.00
69257;BME280;56376;53.356;-1.748;2023-03-31T03:59:02;96505.97;;;8.71;100.00
69257;BME280;56376;53.356;-1.748;2023-03-31T04:01:28;96509.53;;;8.70;100.00
69257;BME280;56376;53.356;-1.748;2023-03-31T04:03:53;96499.22;;;8.69;100.00
69257;BME280;56376;53.356;-1.748;2023-03-31T04:06:19;96494.84;;;8.69;100.00
69257;BME280;56376;53.356;-1.748;2023-03-31T04:08:44;96483.84;;;8.65;100.00
69257;BME280;56376;53.356;-1.748;2023-03-31T04:11:17;96485.63;;;8.65;100.00
69257;BME280;56376;53.356;-1.748;2023-03-31T04:13:44;96488.09;;;8.66;100.00
69257;BME280;56376;53.356;-1.748;2023-03-31T04:16:10;96481.97;;;8.68;100.00
69257;BME280;56376;53.356;-1.748;2023-03-31T04:18:36;96473.44;;;8.65;100.00
69257;BME280;56376;53.356;-1.748;2023-03-31T04:21:07;96463.88;;;8.66;100.00
69257;BME280;56376;53.356;-1.748;2023-03-31T04:23:37;96460.53;;;8.64;100.00
69257;BME280;56376;53.356;-1.748;2023-03-31T04:26:08;96458.78;;;8.64;100.00
69257;BME280;56376;53.356;-1.748;2023-03-31T04:28:35;96457.72;;;8.67;100.00
69257;BME280;56376;53.356;-1.748;2023-03-31T04:31:02;96447.19;;;8.69;100.00
69257;BME280;56376;53.356;-1.748;2023-03-31T04:33:27;96445.28;;;8.71;100.00
69257;BME280;56376;53.356;-1.748;2023-03-31T04:35:53;96437.84;;;8.66;100.00
69257;BME280;56376;53.356;-1.748;2023-03-31T04:38:21;96429.94;;;8.68;100.00
69257;BME280;56376;53.356;-1.748;2023-03-31T04:40:48;96420.69;;;8.63;100.00
69257;BME280;56376;53.356;-1.748;2023-03-31T04:43:15;96415.38;;;8.65;100.00
69257;BME280;56376;53.356;-1.748;2023-03-31T04:45:41;96411.00;;;8.65;100.00
69257;BME280;56376;53.356;-1.748;2023-03-31T04:48:07;96412.66;;;8.66;100.00
69257;BME280;56376;53.356;-1.748;2023-03-31T04:50:33;96401.31;;;8.68;100.00
69257;BME280;56376;53.356;-1.748;2023-03-31T04:52:58;96407.91;;;8.72;100.00
69257;BME280;56376;53.356;-1.748;2023-03-31T04:55:24;96402.84;;;8.70;100.00
69257;BME280;56376;53.356;-1.748;2023-03-31T04:57:49;96407.22;;;8.70;100.00
69257;BME280;56376;53.356;-1.748;2023-03-31T05:00:16;96392.06;;;8.75;100.00
69257;BME280;56376;53.356;-1.748;2023-03-31T05:02:42;96388.88;;;8.71;100.00
69257;BME280;56376;53.356;-1.748;2023-03-31T05:05:07;96386.28;;;8.71;100.00
69257;BME280;56376;53.356;-1.748;2023-03-31T05:07:33;96380.34;;;8.69;100.00
69257;BME280;56376;53.356;-1.748;2023-03-31T05:09:58;96388.88;;;8.71;100.00
69257;BME280;56376;53.356;-1.748;2023-03-31T05:12:23;96386.28;;;8.71;100.00
69257;BME280;56376;53.356;-1.748;2023-03-31T05:14:50;96373.16;;;8.73;100.00
69257;BME280;56376;53.356;-1.748;2023-03-31T05:17:15;96383.66;;;8.71;100.00
69257;BME280;56376;53.356;-1.748;2023-03-31T05:19:42;96382.75;;;8.72;100.00
69257;BME280;56376;53.356;-1.748;2023-03-31T05:22:07;96367.22;;;8.71;100.00
69257;BME280;56376;53.356;-1.748;2023-03-31T05:24:33;96371.38;;;8.73;100.00
69257;BME280;56376;53.356;-1.748;2023-03-31T05:26:58;96373.25;;;8.71;100.00
69257;BME280;56376;53.356;-1.748;2023-03-31T05:29:23;96376.00;;;8.70;100.00
69257;BME280;56376;53.356;-1.748;2023-03-31T05:31:49;96361.56;;;8.65;100.00
69257;BME280;56376;53.356;-1.748;2023-03-31T05:34:14;96358.84;;;8.67;100.00
69257;BME280;56376;53.356;-1.748;2023-03-31T05:36:40;96369.63;;;8.62;100.00
69257;BME280;56376;53.356;-1.748;2023-03-31T05:39:07;96363.59;;;8.62;100.00
69257;BME280;56376;53.356;-1.748;2023-03-31T05:41:33;96365.34;;;8.61;100.00
69257;BME280;56376;53.356;-1.748;2023-03-31T05:43:58;96362.75;;;8.61;100.00
69257;BME280;56376;53.356;-1.748;2023-03-31T05:46:24;96349.88;;;8.60;100.00
69257;BME280;56376;53.356;-1.748;2023-03-31T05:48:50;96354.72;;;8.64;100.00
69257;BME280;56376;53.356;-1.748;2023-03-31T05:51:16;96357.31;;;8.64;100.00
69257;BME280;56376;53.356;-1.748;2023-03-31T05:53:41;96356.47;;;8.64;100.00
69257;BME280;56376;53.356;-1.748;2023-03-31T05:56:07;96349.50;;;8.64;100.00
69257;BME280;56376;53.356;-1.748;2023-03-31T05:58:33;96352.94;;;8.65;100.00
69257;BME280;56376;53.356;-1.748;2023-03-31T06:01:04;96359.78;;;8.66;100.00
69257;BME280;56376;53.356;-1.748;2023-03-31T06:03:34;96357.06;;;8.68;100.00
69257;BME280;56376;53.356;-1.748;2023-03-31T06:06:00;96358.72;;;8.69;100.00
69257;BME280;56376;53.356;-1.748;2023-03-31T06:08:27;96357.19;;;8.66;100.00
69257;BME280;56376;53.356;-1.748;2023-03-31T06:10:53;96356.13;;;8.69;100.00
69257;BME280;56376;53.356;-1.748;2023-03-31T06:13:18;96355.41;;;8.66;100.00
69257;BME280;56376;53.356;-1.748;2023-03-31T06:15:57;96361.56;;;8.65;100.00
69257;BME280;56376;53.356;-1.748;2023-03-31T06:18:24;96351.66;;;8.59;100.00
69257;BME280;56376;53.356;-1.748;2023-03-31T06:20:52;96351.97;;;8.66;100.00
69257;BME280;56376;53.356;-1.748;2023-03-31T06:23:18;96356.38;;;8.65;100.00
69257;BME280;56376;53.356;-1.748;2023-03-31T06:25:43;96346.66;;;8.68;100.00
69257;BME280;56376;53.356;-1.748;2023-03-31T06:28:09;96351.16;;;8.65;100.00
69257;BME280;56376;53.356;-1.748;2023-03-31T06:30:34;96352.13;;;8.64;100.00
69257;BME280;56376;53.356;-1.748;2023-03-31T06:33:00;96353.50;;;8.69;100.00
69257;BME280;56376;53.356;-1.748;2023-03-31T06:35:26;96350.81;;;8.70;100.00
69257;BME280;56376;53.356;-1.748;2023-03-31T06:37:51;96360.38;;;8.70;100.00
69257;BME280;56376;53.356;-1.748;2023-03-31T06:40:17;96350.91;;;8.69;100.00
69257;BME280;56376;53.356;-1.748;2023-03-31T06:42:42;96351.50;;;8.72;100.00
69257;BME280;56376;53.356;-1.748;2023-03-31T06:45:08;96344.53;;;8.73;100.00
69257;BME280;56376;53.356;-1.748;2023-03-31T06:47:33;96339.56;;;8.70;100.00
69257;BME280;56376;53.356;-1.748;2023-03-31T06:49:59;96350.56;;;8.73;100.00
69257;BME280;56376;53.356;-1.748;2023-03-31T06:52:24;96354.69;;;8.76;100.00
69257;BME280;56376;53.356;-1.748;2023-03-31T06:54:50;96351.13;;;8.77;100.00
69257;BME280;56376;53.356;-1.748;2023-03-31T06:57:15;96352.78;;;8.78;100.00
69257;BME280;56376;53.356;-1.748;2023-03-31T06:59:40;96353.88;;;8.75;100.00
69257;BME280;56376;53.356;-1.748;2023-03-31T07:02:06;96358.25;;;8.75;100.00
69257;BME280;56376;53.356;-1.748;2023-03-31T07:04:31;96361.66;;;8.75;100.00
69257;BME280;56376;53.356;-1.748;2023-03-31T07:06:57;96351.97;;;8.77;100.00
69257;BME280;56376;53.356;-1.748;2023-03-31T07:09:23;96358.72;;;8.80;100.00
69257;BME280;56376;53.356;-1.748;2023-03-31T07:11:48;96362.84;;;8.82;100.00
69257;BME280;56376;53.356;-1.748;2023-03-31T07:14:14;96362.13;;;8.80;100.00
69257;BME280;56376;53.356;-1.748;2023-03-31T07:16:39;96364.84;;;8.79;100.00
69257;BME280;56376;53.356;-1.748;2023-03-31T07:19:06;96361.31;;;8.80;100.00
69257;BME280;56376;53.356;-1.748;2023-03-31T07:21:32;96360.72;;;8.76;100.00
69257;BME280;56376;53.356;-1.748;2023-03-31T07:23:57;96365.91;;;8.76;100.00
69257;BME280;56376;53.356;-1.748;2023-03-31T07:26:23;96362.50;;;8.76;100.00
69257;BME280;56376;53.356;-1.748;2023-03-31T07:28:48;96368.66;;;8.75;100.00
69257;BME280;56376;53.356;-1.748;2023-03-31T07:31:14;96359.19;;;8.74;100.00
69257;BME280;56376;53.356;-1.748;2023-03-31T07:33:40;96368.19;;;8.70;100.00
69257;BME280;56376;53.356;-1.748;2023-03-31T07:36:06;96361.06;;;8.72;100.00
69257;BME280;56376;53.356;-1.748;2023-03-31T07:38:32;96368.88;;;8.72;100.00
69257;BME280;56376;53.356;-1.748;2023-03-31T07:40:57;96362.59;;;8.74;100.00
69257;BME280;56376;53.356;-1.748;2023-03-31T07:43:22;96368.66;;;8.75;100.00
69257;BME280;56376;53.356;-1.748;2023-03-31T07:45:48;96367.69;;;8.76;100.00
69257;BME280;56376;53.356;-1.748;2023-03-31T07:48:13;96366.97;;;8.74;100.00
69257;BME280;56376;53.356;-1.748;2023-03-31T07:50:39;96374.78;;;8.74;100.00
69257;BME280;56376;53.356;-1.748;2023-03-31T07:53:04;96370.31;;;8.76;100.00
69257;BME280;56376;53.356;-1.748;2023-03-31T07:55:30;96368.53;;;8.76;100.00
69257;BME280;56376;53.356;-1.748;2023-03-31T07:57:56;96361.53;;;8.77;100.00
69257;BME280;56376;53.356;-1.748;2023-03-31T08:00:22;96366.50;;;8.80;100.00
69257;BME280;56376;53.356;-1.748;2023-03-31T08:02:47;96361.66;;;8.75;100.00
69257;BME280;56376;53.356;-1.748;2023-03-31T08:05:15;96369.22;;;8.78;100.00
69257;BME280;56376;53.356;-1.748;2023-03-31T08:07:44;96375.00;;;8.82;100.00
69257;BME280;56376;53.356;-1.748;2023-03-31T08:10:13;96367.91;;;8.84;100.00
69257;BME280;56376;53.356;-1.748;2023-03-31T08:12:39;96373.81;;;8.86;100.00
69257;BME280;56376;53.356;-1.748;2023-03-31T08:15:05;96377.03;;;8.90;100.00
69257;BME280;56376;53.356;-1.748;2023-03-31T08:17:31;96371.69;;;8.91;100.00
69257;BME280;56376;53.356;-1.748;2023-03-31T08:19:56;96369.06;;;8.91;100.00
69257;BME280;56376;53.356;-1.748;2023-03-31T08:22:22;96374.19;;;8.93;100.00
69257;BME280;56376;53.356;-1.748;2023-03-31T08:24:47;96378.31;;;8.95;100.00
69257;BME280;56376;53.356;-1.748;2023-03-31T08:27:13;96388.72;;;8.95;100.00
69257;BME280;56376;53.356;-1.748;2023-03-31T08:29:38;96378.06;;;8.98;100.00
69257;BME280;56376;53.356;-1.748;2023-03-31T08:32:04;96389.03;;;9.02;100.00
69257;BME280;56376;53.356;-1.748;2023-03-31T08:34:29;96382.19;;;9.01;100.00
69257;BME280;56376;53.356;-1.748;2023-03-31T08:36:55;96379.34;;;9.04;100.00
69257;BME280;56376;53.356;-1.748;2023-03-31T08:39:20;96376.25;;;9.10;100.00
69257;BME280;56376;53.356;-1.748;2023-03-31T08:44:28;96392.34;;;9.15;100.00
69257;BME280;56376;53.356;-1.748;2023-03-31T08:46:57;96387.69;;;9.19;100.00
69257;BME280;56376;53.356;-1.748;2023-03-31T08:49:25;96386.50;;;9.23;100.00
69257;BME280;56376;53.356;-1.748;2023-03-31T08:51:58;96393.25;;;9.25;100.00
69257;BME280;56376;53.356;-1.748;2023-03-31T08:54:30;96397.63;;;9.25;100.00
69257;BME280;56376;53.356;-1.748;2023-03-31T08:56:57;96397.63;;;9.25;100.00
69257;BME280;56376;53.356;-1.748;2023-03-31T08:59:29;96405.56;;;9.23;100.00
69257;BME280;56376;53.356;-1.748;2023-03-31T09:02:01;96400.25;;;9.25;100.00
69257;BME280;56376;53.356;-1.748;2023-03-31T09:07:29;96402.84;;;9.25;100.00
69257;BME280;56376;53.356;-1.748;2023-03-31T09:12:52;96406.13;;;9.27;100.00
69257;BME280;56376;53.356;-1.748;2023-03-31T09:18:29;96421.53;;;9.30;100.00
69257;BME280;56376;53.356;-1.748;2023-03-31T09:21:25;96423.28;;;9.29;100.00
69257;BME280;56376;53.356;-1.748;2023-03-31T09:24:05;96425.66;;;9.32;100.00
69257;BME280;56376;53.356;-1.748;2023-03-31T09:27:00;96425.41;;;9.36;100.00
69257;BME280;56376;53.356;-1.748;2023-03-31T09:29:39;96434.75;;;9.38;100.00
69257;BME280;56376;53.356;-1.748;2023-03-31T09:34:39;96433.47;;;9.32;100.00
69257;BME280;56376;53.356;-1.748;2023-03-31T09:37:05;96438.91;;;9.29;100.00
69257;BME280;56376;53.356;-1.748;2023-03-31T09:39:31;96437.84;;;9.32;100.00
69257;BME280;56376;53.356;-1.748;2023-03-31T09:41:56;96448.16;;;9.34;100.00
69257;BME280;56376;53.356;-1.748;2023-03-31T09:44:26;96454.19;;;9.34;100.00
69257;BME280;56376;53.356;-1.748;2023-03-31T09:46:53;96453.34;;;9.34;100.00
69257;BME280;56376;53.356;-1.748;2023-03-31T09:49:22;96463.19;;;9.30;100.00
69257;BME280;56376;53.356;-1.748;2023-03-31T09:51:59;96468.41;;;9.30;100.00
69257;BME280;56376;53.356;-1.748;2023-03-31T09:54:35;96461.53;;;9.29;100.00
69257;BME280;56376;53.356;-1.748;2023-03-31T09:57:02;96464.03;;;9.30;100.00
69257;BME280;56376;53.356;-1.748;2023-03-31T09:59:36;96473.63;;;9.30;100.00
69257;BME280;56376;53.356;-1.748;2023-03-31T10:02:11;96465.81;;;9.30;100.00
69257;BME280;56376;53.356;-1.748;2023-03-31T10:04:44;96462.00;;;9.34;100.00
69257;BME280;56376;53.356;-1.748;2023-03-31T10:07:11;96482.81;;;9.34;100.00
69257;BME280;56376;53.356;-1.748;2023-03-31T10:09:37;96480.22;;;9.34;100.00
69257;BME280;56376;53.356;-1.748;2023-03-31T10:12:13;96471.34;;;9.37;100.00
69257;BME280;56376;53.356;-1.748;2023-03-31T10:14:45;96479.75;;;9.40;100.00
69257;BME280;56376;53.356;-1.748;2023-03-31T10:17:16;96483.63;;;9.46;100.00
69257;BME280;56376;53.356;-1.748;2023-03-31T10:19:55;96483.13;;;9.52;100.00
69257;BME280;56376;53.356;-1.748;2023-03-31T10:24:51;96492.25;;;9.58;100.00
69257;BME280;56376;53.356;-1.748;2023-03-31T10:27:28;96494.00;;;9.57;100.00
69257;BME280;56376;53.356;-1.748;2023-03-31T10:29:56;96499.94;;;9.59;100.00
69257;BME280;56376;53.356;-1.748;2023-03-31T10:32:33;96494.84;;;9.58;100.00
69257;BME280;56376;53.356;-1.748;2023-03-31T10:35:19;96502.28;;;9.62;100.00
69257;BME280;56376;53.356;-1.748;2023-03-31T10:37:48;96496.13;;;9.63;100.00
69257;BME280;56376;53.356;-1.748;2023-03-31T10:40:19;96512.34;;;9.67;100.00
69257;BME280;56376;53.356;-1.748;2023-03-31T10:42:48;96518.16;;;9.70;100.00
69257;BME280;56376;53.356;-1.748;2023-03-31T10:45:36;96518.00;;;9.72;100.00
69257;BME280;56376;53.356;-1.748;2023-03-31T10:48:02;96522.16;;;9.74;100.00
69257;BME280;56376;53.356;-1.748;2023-03-31T10:50:35;96522.84;;;9.77;100.00
69257;BME280;56376;53.356;-1.748;2023-03-31T10:53:09;96528.41;;;9.83;100.00
69257;BME280;56376;53.356;-1.748;2023-03-31T10:55:43;96532.41;;;9.87;100.00
69257;BME280;56376;53.356;-1.748;2023-03-31T10:58:21;96529.81;;;9.87;100.00
69257;BME280;56376;53.356;-1.748;2023-03-31T11:06:03;96547.13;;;9.88;100.00
69257;BME280;56376;53.356;-1.748;2023-03-31T11:19:49;96556.56;;;10.01;100.00
69257;BME280;56376;53.356;-1.748;2023-03-31T11:22:20;96571.13;;;10.03;100.00
69257;BME280;56376;53.356;-1.748;2023-03-31T11:27:30;96572.66;;;10.06;100.00
69257;BME280;56376;53.356;-1.748;2023-03-31T11:30:05;96582.84;;;10.09;100.00
69257;BME280;56376;53.356;-1.748;2023-03-31T11:43:45;96614.53;;;9.93;100.00
69257;BME280;56376;53.356;-1.748;2023-03-31T11:46:50;96623.19;;;9.93;100.00
69257;BME280;56376;53.356;-1.748;2023-03-31T11:49:22;96623.44;;;9.90;100.00
69257;BME280;56376;53.356;-1.748;2023-03-31T11:52:00;96625.66;;;9.95;100.00
69257;BME280;56376;53.356;-1.748;2023-03-31T11:57:01;96626.50;;;9.95;100.00
69257;BME280;56376;53.356;-1.748;2023-03-31T11:59:31;96627.91;;;10.00;100.00
69257;BME280;56376;53.356;-1.748;2023-03-31T12:02:18;96635.84;;;9.98;100.00
69257;BME280;56376;53.356;-1.748;2023-03-31T12:04:52;96644.34;;;10.00;100.00
69257;BME280;56376;53.356;-1.748;2023-03-31T12:09:54;96649.34;;;10.03;100.00
69257;BME280;56376;53.356;-1.748;2023-03-31T12:12:31;96653.59;;;10.04;100.00
69257;BME280;56376;53.356;-1.748;2023-03-31T12:15:11;96665.00;;;10.03;100.00
69257;BME280;56376;53.356;-1.748;2023-03-31T12:17:40;96667.22;;;10.08;100.00
69257;BME280;56376;53.356;-1.748;2023-03-31T12:20:23;96670.53;;;10.10;100.00
69257;BME280;56376;53.356;-1.748;2023-03-31T12:22:51;96674.09;;;10.09;100.00
69257;BME280;56376;53.356;-1.748;2023-03-31T12:25:21;96679.31;;;10.09;100.00
69257;BME280;56376;53.356;-1.748;2023-03-31T12:27:47;96690.69;;;10.08;100.00
69257;BME280;56376;53.356;-1.748;2023-03-31T12:30:19;96693.69;;;10.03;100.00
69257;BME280;56376;53.356;-1.748;2023-03-31T12:33:14;96694.75;;;10.01;100.00
69257;BME280;56376;53.356;-1.748;2023-03-31T12:49:45;96720.38;;;9.95;100.00
69257;BME280;56376;53.356;-1.748;2023-03-31T12:52:24;96712.53;;;9.95;100.00
69257;BME280;56376;53.356;-1.748;2023-03-31T12:55:06;96709.22;;;9.93;100.00
69257;BME280;56376;53.356;-1.748;2023-03-31T12:57:35;96723.34;;;9.91;100.00
69257;BME280;56376;53.356;-1.748;2023-03-31T13:02:31;96728.78;;;9.88;100.00
69257;BME280;56376;53.356;-1.748;2023-03-31T13:04:57;96726.41;;;9.85;100.00
69257;BME280;56376;53.356;-1.748;2023-03-31T13:09:55;96741.69;;;9.89;100.00
69257;BME280;56376;53.356;-1.748;2023-03-31T13:12:23;96750.47;;;9.88;100.00
69257;BME280;56376;53.356;-1.748;2023-03-31T13:14:53;96743.38;;;9.90;100.00
69257;BME280;56376;53.356;-1.748;2023-03-31T13:19:48;96764.56;;;9.86;100.00
69257;BME280;56376;53.356;-1.748;2023-03-31T13:22:34;96765.66;;;9.83;100.00
69257;BME280;56376;53.356;-1.748;2023-03-31T13:27:53;96785.31;;;9.76;100.00
69257;BME280;56376;53.356;-1.748;2023-03-31T13:35:36;96785.31;;;9.76;100.00
69257;BME280;56376;53.356;-1.748;2023-03-31T13:43:47;96801.66;;;9.78;100.00
69257;BME280;56376;53.356;-1.748;2023-03-31T13:51:58;96808.06;;;9.96;100.00
69257;BME280;56376;53.356;-1.748;2023-03-31T14:11:27;96836.97;;;10.05;100.00
69257;BME280;56376;53.356;-1.748;2023-03-31T14:16:39;96838.75;;;10.04;100.00
69257;BME280;56376;53.356;-1.748;2023-03-31T14:24:54;96857.84;;;10.05;100.00
69257;BME280;56376;53.356;-1.748;2023-03-31T14:33:08;96874.81;;;9.99;100.00
69257;BME280;56376;53.356;-1.748;2023-03-31T14:35:42;96883.59;;;9.98;100.00
69257;BME280;56376;53.356;-1.748;2023-03-31T14:38:17;96884.41;;;9.99;100.00
69257;BME280;56376;53.356;-1.748;2023-03-31T14:40:46;96891.03;;;10.03;100.00
69257;BME280;56376;53.356;-1.748;2023-03-31T14:43:37;96893.53;;;9.93;100.00
69257;BME280;56376;53.356;-1.748;2023-03-31T14:46:06;96896.13;;;9.93;100.00
69257;BME280;56376;53.356;-1.748;2023-03-31T14:48:36;96909.28;;;9.91;100.00
69257;BME280;56376;53.356;-1.748;2023-03-31T14:51:08;96910.56;;;9.86;100.00
69257;BME280;56376;53.356;-1.748;2023-03-31T14:53:34;96922.56;;;9.88;100.00
69257;BME280;56376;53.356;-1.748;2023-03-31T14:56:22;96929.66;;;9.86;100.00
69257;BME280;56376;53.356;-1.748;2023-03-31T14:58:52;96937.56;;;9.85;100.00
69257;BME280;56376;53.356;-1.748;2023-03-31T15:01:22;96937.72;;;9.83;100.00
69257;BME280;56376;53.356;-1.748;2023-03-31T15:03:51;96942.78;;;9.73;100.00
69257;BME280;56376;53.356;-1.748;2023-03-31T15:06:17;96953.53;;;9.69;100.00
69257;BME280;56376;53.356;-1.748;2023-03-31T15:08:43;96951.88;;;9.68;100.00
69257;BME280;56376;53.356;-1.748;2023-03-31T15:11:15;96956.13;;;9.69;100.00
69257;BME280;56376;53.356;-1.748;2023-03-31T15:13:44;96965.59;;;9.70;100.00
69257;BME280;56376;53.356;-1.748;2023-03-31T15:16:31;96974.16;;;9.72;100.00
69257;BME280;56376;53.356;-1.748;2023-03-31T15:18:58;96971.69;;;9.70;100.00
69257;BME280;56376;53.356;-1.748;2023-03-31T15:21:27;96975.34;;;9.68;100.00
69257;BME280;56376;53.356;-1.748;2023-03-31T15:23:55;96980.56;;;9.68;100.00
69257;BME280;56376;53.356;-1.748;2023-03-31T15:26:27;96975.66;;;9.63;100.00
69257;BME280;56376;53.356;-1.748;2023-03-31T15:28:57;96992.38;;;9.61;100.00
69257;BME280;56376;53.356;-1.748;2023-03-31T15:31:26;96995.75;;;9.50;100.00
69257;BME280;56376;53.356;-1.748;2023-03-31T15:33:52;97002.00;;;9.47;100.00
69257;BME280;56376;53.356;-1.748;2023-03-31T15:36:19;97004.72;;;9.46;100.00
69257;BME280;56376;53.356;-1.748;2023-03-31T15:38:45;97009.81;;;9.47;100.00
69257;BME280;56376;53.356;-1.748;2023-03-31T15:41:13;97003.66;;;9.48;100.00
69257;BME280;56376;53.356;-1.748;2023-03-31T15:43:49;97010.75;;;9.46;100.00
69257;BME280;56376;53.356;-1.748;2023-03-31T15:49:19;97016.69;;;9.48;100.00
69257;BME280;56376;53.356;-1.748;2023-03-31T15:51:45;97022.63;;;9.50;100.00
69257;BME280;56376;53.356;-1.748;2023-03-31T15:54:36;97033.66;;;9.54;100.00